Aérodrome :
LOGIN :

S'inscrire | Disclaimer

   EN    FR    IT 

 










Légende :    VFR   VFR Marginal   IFR   IFR Intensif   IFR Très Intensif
Visi : 
Plafond : 
>= 8 km
>= 3000ft
5 à 8 km
1000 à 3000 ft
1500m à 5 km
500 à 1000 ft
800 à 1500m
200 à 500 ft
< 800m
< 200 ft
Symboles :   Orages  Brouillard  Fortes neiges  Fortes précipitations  Vent > 20 kt
SIGMETs :   Divers  Orages  Givrage  Turbulence  Onde Orograph.  Cendres Volcan.






- Altitude de l'aérodrome : 102 ft
- Code IATA : CNG


LFBG - Cognac

DERNIER METAR :
  • 280400Z AUTO 25004KT 9999 BKN029 BKN240 10/09 Q1016

METARs EXPIRÉS :
  • 280330Z AUTO 22003KT 9999 FEW028/// BKN054/// BKN066/// ///TCU 10/09 Q1015
  • 280300Z AUTO 24003KT 9999 FEW035 BKN042 BKN050 11/10 Q1015
  • 280230Z AUTO 26004KT 9999 SCT046 SCT066 BKN100 11/10 Q1015
  • 272200Z AUTO 24005KT 190V290 5000 -RA BR SCT009/// BKN023/// BKN033/// ///CB 10/09 Q1015
  • 280200Z AUTO 26005KT CAVOK 11/11 Q1015
  • 280130Z AUTO VRB03KT 9999 FEW011 OVC130 11/11 Q1015

Prévision TAF périmée.



MET'MAP, la Météo Aéronautique d'un coup d'oeil ! - Copyright ORBIFLY Décembre 2007 - Disclaimer

ORBIFLY MET'MAP TEAM :

Programmation & Développement : Alexandra Zaïnal
Sur une idée originale de : Baudouin d'Aumeries
Soutien technique & logistique : Manuel Goepfert
Assistance : Marc-Olivier Méhu




SOURCES & CREDITS :

   NOAA